sensor_id;sensor_type;location;lat;lon;timestamp;temperature;humidity
74968;SHT30;63523;51.880;12.630;2023-09-19T00:00:57;18.17;79.56
74968;SHT30;63523;51.880;12.630;2023-09-19T00:03:23;18.21;79.41
74968;SHT30;63523;51.880;12.630;2023-09-19T00:05:49;18.19;79.27
74968;SHT30;63523;51.880;12.630;2023-09-19T00:08:15;18.29;78.91
74968;SHT30;63523;51.880;12.630;2023-09-19T00:10:42;18.25;79.28
74968;SHT30;63523;51.880;12.630;2023-09-19T00:13:08;18.22;79.21
74968;SHT30;63523;51.880;12.630;2023-09-19T00:15:39;18.18;79.42
74968;SHT30;63523;51.880;12.630;2023-09-19T00:18:06;18.15;79.78
74968;SHT30;63523;51.880;12.630;2023-09-19T00:20:37;18.18;79.73
74968;SHT30;63523;51.880;12.630;2023-09-19T00:23:04;18.18;79.85
74968;SHT30;63523;51.880;12.630;2023-09-19T00:25:29;18.17;80.00
74968;SHT30;63523;51.880;12.630;2023-09-19T00:27:55;18.17;80.11
74968;SHT30;63523;51.880;12.630;2023-09-19T00:30:20;18.17;80.08
74968;SHT30;63523;51.880;12.630;2023-09-19T00:32:50;18.18;79.88
74968;SHT30;63523;51.880;12.630;2023-09-19T00:35:22;18.17;79.83
74968;SHT30;63523;51.880;12.630;2023-09-19T00:37:49;18.15;79.75
74968;SHT30;63523;51.880;12.630;2023-09-19T00:40:14;18.10;79.76
74968;SHT30;63523;51.880;12.630;2023-09-19T00:42:43;18.05;79.96
74968;SHT30;63523;51.880;12.630;2023-09-19T00:45:10;18.02;80.03
74968;SHT30;63523;51.880;12.630;2023-09-19T00:47:43;17.98;80.17
74968;SHT30;63523;51.880;12.630;2023-09-19T00:50:09;17.97;80.26
74968;SHT30;63523;51.880;12.630;2023-09-19T00:52:37;17.97;80.37
74968;SHT30;63523;51.880;12.630;2023-09-19T00:55:05;17.96;80.36
74968;SHT30;63523;51.880;12.630;2023-09-19T00:57:32;17.93;80.40
74968;SHT30;63523;51.880;12.630;2023-09-19T00:59:58;17.89;80.54
74968;SHT30;63523;51.880;12.630;2023-09-19T01:02:25;17.84;80.72
74968;SHT30;63523;51.880;12.630;2023-09-19T01:04:53;17.79;80.75
74968;SHT30;63523;51.880;12.630;2023-09-19T01:07:19;17.77;80.74
74968;SHT30;63523;51.880;12.630;2023-09-19T01:09:45;17.72;80.89
74968;SHT30;63523;51.880;12.630;2023-09-19T01:12:12;17.69;81.09
74968;SHT30;63523;51.880;12.630;2023-09-19T01:14:50;17.63;81.13
74968;SHT30;63523;51.880;12.630;2023-09-19T01:17:26;17.61;81.34
74968;SHT30;63523;51.880;12.630;2023-09-19T01:22:57;17.53;81.73
74968;SHT30;63523;51.880;12.630;2023-09-19T01:25:49;17.50;81.81
74968;SHT30;63523;51.880;12.630;2023-09-19T01:31:21;17.38;80.66
74968;SHT30;63523;51.880;12.630;2023-09-19T01:33:59;17.27;81.09
74968;SHT30;63523;51.880;12.630;2023-09-19T01:36:29;17.21;81.54
74968;SHT30;63523;51.880;12.630;2023-09-19T01:38:55;17.14;81.31
74968;SHT30;63523;51.880;12.630;2023-09-19T01:41:30;17.11;81.71
74968;SHT30;63523;51.880;12.630;2023-09-19T01:43:59;17.08;82.08
74968;SHT30;63523;51.880;12.630;2023-09-19T01:46:33;17.06;82.52
74968;SHT30;63523;51.880;12.630;2023-09-19T01:49:35;17.00;82.60
74968;SHT30;63523;51.880;12.630;2023-09-19T01:52:10;16.95;82.65
74968;SHT30;63523;51.880;12.630;2023-09-19T01:54:52;16.88;82.94
74968;SHT30;63523;51.880;12.630;2023-09-19T01:57:26;16.84;83.03
74968;SHT30;63523;51.880;12.630;2023-09-19T02:00:05;16.80;83.39
74968;SHT30;63523;51.880;12.630;2023-09-19T02:02:35;16.80;83.74
74968;SHT30;63523;51.880;12.630;2023-09-19T02:05:01;16.84;84.06
74968;SHT30;63523;51.880;12.630;2023-09-19T02:07:27;16.84;84.21
74968;SHT30;63523;51.880;12.630;2023-09-19T02:09:54;16.91;84.42
74968;SHT30;63523;51.880;12.630;2023-09-19T02:12:20;16.94;83.94
74968;SHT30;63523;51.880;12.630;2023-09-19T02:14:45;16.91;83.74
74968;SHT30;63523;51.880;12.630;2023-09-19T02:17:11;16.91;83.58
74968;SHT30;63523;51.880;12.630;2023-09-19T02:19:37;16.91;83.78
74968;SHT30;63523;51.880;12.630;2023-09-19T02:22:04;16.93;83.70
74968;SHT30;63523;51.880;12.630;2023-09-19T02:24:32;16.90;83.73
74968;SHT30;63523;51.880;12.630;2023-09-19T02:26:58;16.90;83.90
74968;SHT30;63523;51.880;12.630;2023-09-19T02:29:24;16.93;84.07
74968;SHT30;63523;51.880;12.630;2023-09-19T02:31:50;16.95;84.01
74968;SHT30;63523;51.880;12.630;2023-09-19T02:34:15;16.99;84.11
74968;SHT30;63523;51.880;12.630;2023-09-19T02:36:41;16.99;84.26
74968;SHT30;63523;51.880;12.630;2023-09-19T02:39:09;16.99;84.21
74968;SHT30;63523;51.880;12.630;2023-09-19T02:41:36;16.99;84.19
74968;SHT30;63523;51.880;12.630;2023-09-19T02:44:01;17.01;84.11
74968;SHT30;63523;51.880;12.630;2023-09-19T02:46:27;17.03;83.91
74968;SHT30;63523;51.880;12.630;2023-09-19T02:48:52;17.04;83.84
74968;SHT30;63523;51.880;12.630;2023-09-19T02:51:20;17.07;83.71
74968;SHT30;63523;51.880;12.630;2023-09-19T02:53:45;17.07;83.80
74968;SHT30;63523;51.880;12.630;2023-09-19T02:56:12;17.04;83.63
74968;SHT30;63523;51.880;12.630;2023-09-19T02:58:39;17.06;83.65
74968;SHT30;63523;51.880;12.630;2023-09-19T03:01:10;17.06;83.47
74968;SHT30;63523;51.880;12.630;2023-09-19T03:03:43;17.01;83.41
74968;SHT30;63523;51.880;12.630;2023-09-19T03:06:10;16.97;83.35
74968;SHT30;63523;51.880;12.630;2023-09-19T03:08:36;16.94;83.45
74968;SHT30;63523;51.880;12.630;2023-09-19T03:11:04;16.90;83.64
74968;SHT30;63523;51.880;12.630;2023-09-19T03:13:31;16.90;83.53
74968;SHT30;63523;51.880;12.630;2023-09-19T03:15:57;16.88;83.66
74968;SHT30;63523;51.880;12.630;2023-09-19T03:18:24;16.85;83.86
74968;SHT30;63523;51.880;12.630;2023-09-19T03:20:55;16.85;83.88
74968;SHT30;63523;51.880;12.630;2023-09-19T03:23:20;16.88;83.76
74968;SHT30;63523;51.880;12.630;2023-09-19T03:25:46;16.90;83.67
74968;SHT30;63523;51.880;12.630;2023-09-19T03:28:11;16.90;83.63
74968;SHT30;63523;51.880;12.630;2023-09-19T03:30:37;16.90;83.47
74968;SHT30;63523;51.880;12.630;2023-09-19T03:33:04;16.90;83.52
74968;SHT30;63523;51.880;12.630;2023-09-19T03:35:30;16.90;83.59
74968;SHT30;63523;51.880;12.630;2023-09-19T03:37:55;16.91;83.47
74968;SHT30;63523;51.880;12.630;2023-09-19T03:40:21;16.91;83.45
74968;SHT30;63523;51.880;12.630;2023-09-19T03:42:46;16.94;83.42
74968;SHT30;63523;51.880;12.630;2023-09-19T03:45:13;16.91;83.48
74968;SHT30;63523;51.880;12.630;2023-09-19T03:47:41;16.94;83.44
74968;SHT30;63523;51.880;12.630;2023-09-19T03:50:07;17.03;83.02
74968;SHT30;63523;51.880;12.630;2023-09-19T03:52:34;17.10;82.77
74968;SHT30;63523;51.880;12.630;2023-09-19T03:54:59;17.10;82.58
74968;SHT30;63523;51.880;12.630;2023-09-19T03:57:25;17.12;82.53
74968;SHT30;63523;51.880;12.630;2023-09-19T03:59:50;17.11;82.46
74968;SHT30;63523;51.880;12.630;2023-09-19T04:02:18;17.11;82.37
74968;SHT30;63523;51.880;12.630;2023-09-19T04:04:52;17.08;82.37
74968;SHT30;63523;51.880;12.630;2023-09-19T04:07:18;17.10;82.52
74968;SHT30;63523;51.880;12.630;2023-09-19T04:09:47;17.12;82.40
74968;SHT30;63523;51.880;12.630;2023-09-19T04:12:14;17.11;82.21
74968;SHT30;63523;51.880;12.630;2023-09-19T04:14:42;17.17;82.03
74968;SHT30;63523;51.880;12.630;2023-09-19T04:17:07;17.12;82.01
74968;SHT30;63523;51.880;12.630;2023-09-19T04:19:32;17.11;82.11
74968;SHT30;63523;51.880;12.630;2023-09-19T04:21:58;17.11;82.13
74968;SHT30;63523;51.880;12.630;2023-09-19T04:24:23;17.10;81.90
74968;SHT30;63523;51.880;12.630;2023-09-19T04:26:48;17.07;82.09
74968;SHT30;63523;51.880;12.630;2023-09-19T04:29:14;17.06;81.98
74968;SHT30;63523;51.880;12.630;2023-09-19T04:31:40;17.08;81.92
74968;SHT30;63523;51.880;12.630;2023-09-19T04:34:06;17.11;81.76
74968;SHT30;63523;51.880;12.630;2023-09-19T04:36:31;17.15;81.49
74968;SHT30;63523;51.880;12.630;2023-09-19T04:38:56;17.18;81.49
74968;SHT30;63523;51.880;12.630;2023-09-19T04:41:22;17.19;81.55
74968;SHT30;63523;51.880;12.630;2023-09-19T04:43:48;17.24;81.31
74968;SHT30;63523;51.880;12.630;2023-09-19T04:46:16;17.25;81.12
74968;SHT30;63523;51.880;12.630;2023-09-19T04:48:43;17.28;81.08
74968;SHT30;63523;51.880;12.630;2023-09-19T04:51:08;17.32;81.03
74968;SHT30;63523;51.880;12.630;2023-09-19T04:53:33;17.28;80.99
74968;SHT30;63523;51.880;12.630;2023-09-19T04:55:59;17.27;81.35
74968;SHT30;63523;51.880;12.630;2023-09-19T04:58:24;17.28;81.00
74968;SHT30;63523;51.880;12.630;2023-09-19T05:00:49;17.28;81.22
74968;SHT30;63523;51.880;12.630;2023-09-19T05:03:16;17.27;81.24
74968;SHT30;63523;51.880;12.630;2023-09-19T05:05:42;17.28;81.28
74968;SHT30;63523;51.880;12.630;2023-09-19T05:08:08;17.32;81.07
74968;SHT30;63523;51.880;12.630;2023-09-19T05:10:35;17.32;80.97
74968;SHT30;63523;51.880;12.630;2023-09-19T05:13:03;17.34;80.74
74968;SHT30;63523;51.880;12.630;2023-09-19T05:15:30;17.34;80.55
74968;SHT30;63523;51.880;12.630;2023-09-19T05:17:55;17.35;80.72
74968;SHT30;63523;51.880;12.630;2023-09-19T05:20:21;17.35;80.67
74968;SHT30;63523;51.880;12.630;2023-09-19T05:23:04;17.31;81.07
74968;SHT30;63523;51.880;12.630;2023-09-19T05:25:33;17.25;81.04
74968;SHT30;63523;51.880;12.630;2023-09-19T05:28:02;17.28;80.96
74968;SHT30;63523;51.880;12.630;2023-09-19T05:30:29;17.28;81.03
74968;SHT30;63523;51.880;12.630;2023-09-19T05:32:54;17.31;80.78
74968;SHT30;63523;51.880;12.630;2023-09-19T05:35:20;17.29;81.02
74968;SHT30;63523;51.880;12.630;2023-09-19T05:37:47;17.27;80.95
74968;SHT30;63523;51.880;12.630;2023-09-19T05:40:14;17.24;80.97
74968;SHT30;63523;51.880;12.630;2023-09-19T05:42:40;17.24;80.89
74968;SHT30;63523;51.880;12.630;2023-09-19T05:45:06;17.22;81.10
74968;SHT30;63523;51.880;12.630;2023-09-19T05:47:32;17.17;81.07
74968;SHT30;63523;51.880;12.630;2023-09-19T05:49:57;17.17;81.02
74968;SHT30;63523;51.880;12.630;2023-09-19T05:52:24;17.11;81.05
74968;SHT30;63523;51.880;12.630;2023-09-19T05:54:49;17.10;80.73
74968;SHT30;63523;51.880;12.630;2023-09-19T05:57:15;17.10;80.71
74968;SHT30;63523;51.880;12.630;2023-09-19T05:59:41;17.07;80.55
74968;SHT30;63523;51.880;12.630;2023-09-19T06:02:08;17.10;80.18
74968;SHT30;63523;51.880;12.630;2023-09-19T06:04:33;17.11;79.99
74968;SHT30;63523;51.880;12.630;2023-09-19T06:06:59;17.15;79.84
74968;SHT30;63523;51.880;12.630;2023-09-19T06:09:25;17.19;79.89
74968;SHT30;63523;51.880;12.630;2023-09-19T06:11:53;17.28;79.75
74968;SHT30;63523;51.880;12.630;2023-09-19T06:14:18;17.31;79.03
74968;SHT30;63523;51.880;12.630;2023-09-19T06:16:44;17.36;78.83
74968;SHT30;63523;51.880;12.630;2023-09-19T06:19:09;17.39;78.15
74968;SHT30;63523;51.880;12.630;2023-09-19T06:21:35;17.46;77.81
74968;SHT30;63523;51.880;12.630;2023-09-19T06:24:01;17.56;77.48
74968;SHT30;63523;51.880;12.630;2023-09-19T06:26:26;17.72;76.72
74968;SHT30;63523;51.880;12.630;2023-09-19T06:28:52;17.82;76.07
74968;SHT30;63523;51.880;12.630;2023-09-19T06:31:17;17.96;75.40
74968;SHT30;63523;51.880;12.630;2023-09-19T06:33:43;18.08;74.64
74968;SHT30;63523;51.880;12.630;2023-09-19T06:36:08;18.24;74.17
74968;SHT30;63523;51.880;12.630;2023-09-19T06:38:34;18.45;72.82
74968;SHT30;63523;51.880;12.630;2023-09-19T06:41:02;18.63;71.68
74968;SHT30;63523;51.880;12.630;2023-09-19T06:43:30;18.79;70.37
74968;SHT30;63523;51.880;12.630;2023-09-19T06:45:56;18.84;70.07
74968;SHT30;63523;51.880;12.630;2023-09-19T06:48:22;18.87;69.59
74968;SHT30;63523;51.880;12.630;2023-09-19T06:50:50;18.94;69.09
74968;SHT30;63523;51.880;12.630;2023-09-19T06:53:16;19.06;67.92
74968;SHT30;63523;51.880;12.630;2023-09-19T06:55:42;19.15;68.51
74968;SHT30;63523;51.880;12.630;2023-09-19T06:58:09;19.31;67.31
74968;SHT30;63523;51.880;12.630;2023-09-19T07:00:35;19.49;65.33
74968;SHT30;63523;51.880;12.630;2023-09-19T07:03:06;19.58;63.97
74968;SHT30;63523;51.880;12.630;2023-09-19T07:05:34;19.48;61.64
74968;SHT30;63523;51.880;12.630;2023-09-19T07:08:02;19.46;63.45
74968;SHT30;63523;51.880;12.630;2023-09-19T07:10:28;19.53;61.89
74968;SHT30;63523;51.880;12.630;2023-09-19T07:15:23;19.69;59.89
74968;SHT30;63523;51.880;12.630;2023-09-19T07:17:50;19.72;60.16
74968;SHT30;63523;51.880;12.630;2023-09-19T07:20:15;19.70;60.94
74968;SHT30;63523;51.880;12.630;2023-09-19T07:22:41;19.70;61.71
74968;SHT30;63523;51.880;12.630;2023-09-19T07:25:07;19.76;62.01
74968;SHT30;63523;51.880;12.630;2023-09-19T07:27:33;19.73;61.35
74968;SHT30;63523;51.880;12.630;2023-09-19T07:29:58;19.76;62.60
74968;SHT30;63523;51.880;12.630;2023-09-19T07:32:24;19.87;61.41
74968;SHT30;63523;51.880;12.630;2023-09-19T07:34:49;19.90;60.65
74968;SHT30;63523;51.880;12.630;2023-09-19T07:37:14;20.01;59.61
74968;SHT30;63523;51.880;12.630;2023-09-19T07:39:41;19.84;57.39
74968;SHT30;63523;51.880;12.630;2023-09-19T07:42:06;19.73;59.39
74968;SHT30;63523;51.880;12.630;2023-09-19T07:44:32;19.81;59.68
74968;SHT30;63523;51.880;12.630;2023-09-19T07:46:57;19.76;59.54
74968;SHT30;63523;51.880;12.630;2023-09-19T07:49:22;19.62;60.51
74968;SHT30;63523;51.880;12.630;2023-09-19T07:51:48;19.59;61.39
74968;SHT30;63523;51.880;12.630;2023-09-19T07:54:13;19.74;60.50
74968;SHT30;63523;51.880;12.630;2023-09-19T07:56:40;19.77;60.06
74968;SHT30;63523;51.880;12.630;2023-09-19T07:59:05;19.89;59.87
74968;SHT30;63523;51.880;12.630;2023-09-19T08:01:30;20.00;58.51
74968;SHT30;63523;51.880;12.630;2023-09-19T08:03:56;20.17;58.06
74968;SHT30;63523;51.880;12.630;2023-09-19T08:06:22;20.29;57.45
74968;SHT30;63523;51.880;12.630;2023-09-19T08:08:50;20.38;56.32
74968;SHT30;63523;51.880;12.630;2023-09-19T08:11:16;20.32;56.48
74968;SHT30;63523;51.880;12.630;2023-09-19T08:13:46;20.35;55.58
74968;SHT30;63523;51.880;12.630;2023-09-19T08:16:15;20.25;55.31
74968;SHT30;63523;51.880;12.630;2023-09-19T08:18:40;20.14;56.61
74968;SHT30;63523;51.880;12.630;2023-09-19T08:21:06;19.98;56.21
74968;SHT30;63523;51.880;12.630;2023-09-19T08:23:39;19.87;56.28
74968;SHT30;63523;51.880;12.630;2023-09-19T08:26:05;19.80;55.16
74968;SHT30;63523;51.880;12.630;2023-09-19T08:28:36;19.74;55.32
74968;SHT30;63523;51.880;12.630;2023-09-19T08:31:03;19.62;55.81
74968;SHT30;63523;51.880;12.630;2023-09-19T08:33:31;19.52;56.83
74968;SHT30;63523;51.880;12.630;2023-09-19T08:35:56;19.66;57.60
74968;SHT30;63523;51.880;12.630;2023-09-19T08:38:21;19.76;56.61
74968;SHT30;63523;51.880;12.630;2023-09-19T08:40:47;19.81;54.93
74968;SHT30;63523;51.880;12.630;2023-09-19T08:43:12;19.80;55.34
74968;SHT30;63523;51.880;12.630;2023-09-19T08:45:38;19.86;54.87
74968;SHT30;63523;51.880;12.630;2023-09-19T08:48:09;19.83;54.57
74968;SHT30;63523;51.880;12.630;2023-09-19T08:51:00;19.69;55.06
74968;SHT30;63523;51.880;12.630;2023-09-19T08:55:55;19.67;56.04
74968;SHT30;63523;51.880;12.630;2023-09-19T08:58:27;19.70;57.45
74968;SHT30;63523;51.880;12.630;2023-09-19T09:00:57;19.73;55.84
74968;SHT30;63523;51.880;12.630;2023-09-19T09:03:25;19.70;55.14
74968;SHT30;63523;51.880;12.630;2023-09-19T09:05:51;19.62;55.34
74968;SHT30;63523;51.880;12.630;2023-09-19T09:08:17;19.58;56.55
74968;SHT30;63523;51.880;12.630;2023-09-19T09:10:45;19.58;56.09
74968;SHT30;63523;51.880;12.630;2023-09-19T09:13:10;19.49;56.52
74968;SHT30;63523;51.880;12.630;2023-09-19T09:15:41;19.31;56.48
74968;SHT30;63523;51.880;12.630;2023-09-19T09:18:06;19.22;57.12
74968;SHT30;63523;51.880;12.630;2023-09-19T09:20:31;19.36;56.59
74968;SHT30;63523;51.880;12.630;2023-09-19T09:22:57;19.42;56.76
74968;SHT30;63523;51.880;12.630;2023-09-19T09:25:52;19.32;56.31
74968;SHT30;63523;51.880;12.630;2023-09-19T09:28:24;19.32;57.45
74968;SHT30;63523;51.880;12.630;2023-09-19T09:30:50;19.25;57.27
74968;SHT30;63523;51.880;12.630;2023-09-19T09:33:16;19.29;58.12
74968;SHT30;63523;51.880;12.630;2023-09-19T09:36:02;19.49;57.51
74968;SHT30;63523;51.880;12.630;2023-09-19T09:38:43;19.66;57.02
74968;SHT30;63523;51.880;12.630;2023-09-19T09:41:09;19.77;56.65
74968;SHT30;63523;51.880;12.630;2023-09-19T09:43:39;19.81;56.45
74968;SHT30;63523;51.880;12.630;2023-09-19T09:46:08;19.93;56.79
74968;SHT30;63523;51.880;12.630;2023-09-19T09:51:43;20.08;54.11
74968;SHT30;63523;51.880;12.630;2023-09-19T09:54:13;20.21;52.67
74968;SHT30;63523;51.880;12.630;2023-09-19T09:56:56;20.28;52.77
74968;SHT30;63523;51.880;12.630;2023-09-19T09:59:53;20.51;53.00
74968;SHT30;63523;51.880;12.630;2023-09-19T10:02:34;20.75;51.64
74968;SHT30;63523;51.880;12.630;2023-09-19T10:05:18;20.91;51.40
74968;SHT30;63523;51.880;12.630;2023-09-19T10:07:44;20.97;50.15
74968;SHT30;63523;51.880;12.630;2023-09-19T10:10:36;20.97;49.82
74968;SHT30;63523;51.880;12.630;2023-09-19T10:13:12;21.06;49.80
74968;SHT30;63523;51.880;12.630;2023-09-19T10:15:39;21.20;50.59
74968;SHT30;63523;51.880;12.630;2023-09-19T10:18:10;21.01;50.07
74968;SHT30;63523;51.880;12.630;2023-09-19T10:20:37;21.12;50.35
74968;SHT30;63523;51.880;12.630;2023-09-19T10:23:09;21.23;50.23
74968;SHT30;63523;51.880;12.630;2023-09-19T10:25:38;21.41;48.19
74968;SHT30;63523;51.880;12.630;2023-09-19T10:28:06;21.56;47.63
74968;SHT30;63523;51.880;12.630;2023-09-19T10:30:37;21.60;46.37
74968;SHT30;63523;51.880;12.630;2023-09-19T10:33:04;21.82;46.14
74968;SHT30;63523;51.880;12.630;2023-09-19T10:35:33;21.97;45.16
74968;SHT30;63523;51.880;12.630;2023-09-19T10:38:00;22.07;46.18
74968;SHT30;63523;51.880;12.630;2023-09-19T10:40:29;22.21;45.35
74968;SHT30;63523;51.880;12.630;2023-09-19T10:43:02;22.25;45.68
74968;SHT30;63523;51.880;12.630;2023-09-19T10:45:31;22.30;44.99
74968;SHT30;63523;51.880;12.630;2023-09-19T10:47:57;22.42;43.63
74968;SHT30;63523;51.880;12.630;2023-09-19T10:50:24;22.40;44.63
74968;SHT30;63523;51.880;12.630;2023-09-19T10:52:50;22.52;43.94
74968;SHT30;63523;51.880;12.630;2023-09-19T10:55:24;22.40;42.99
74968;SHT30;63523;51.880;12.630;2023-09-19T10:57:50;22.25;42.45
74968;SHT30;63523;51.880;12.630;2023-09-19T11:00:17;22.04;43.19
74968;SHT30;63523;51.880;12.630;2023-09-19T11:30:41;22.25;43.59
74968;SHT30;63523;51.880;12.630;2023-09-19T11:33:30;22.34;44.83
74968;SHT30;63523;51.880;12.630;2023-09-19T11:36:14;22.30;43.20
74968;SHT30;63523;51.880;12.630;2023-09-19T11:49:16;21.90;42.66
74968;SHT30;63523;51.880;12.630;2023-09-19T11:51:46;21.89;42.73
74968;SHT30;63523;51.880;12.630;2023-09-19T11:54:14;21.76;42.74
74968;SHT30;63523;51.880;12.630;2023-09-19T11:56:44;21.90;43.37
74968;SHT30;63523;51.880;12.630;2023-09-19T11:59:10;21.93;44.25
74968;SHT30;63523;51.880;12.630;2023-09-19T12:01:37;22.11;43.04
74968;SHT30;63523;51.880;12.630;2023-09-19T12:04:11;22.07;43.96
74968;SHT30;63523;51.880;12.630;2023-09-19T12:06:36;22.18;42.21
74968;SHT30;63523;51.880;12.630;2023-09-19T12:09:04;22.27;41.29
74968;SHT30;63523;51.880;12.630;2023-09-19T12:11:41;22.22;40.10
74968;SHT30;63523;51.880;12.630;2023-09-19T12:14:09;22.14;41.15
74968;SHT30;63523;51.880;12.630;2023-09-19T12:16:34;22.15;40.99
74968;SHT30;63523;51.880;12.630;2023-09-19T12:19:18;22.18;41.20
74968;SHT30;63523;51.880;12.630;2023-09-19T12:21:54;22.24;40.73
74968;SHT30;63523;51.880;12.630;2023-09-19T12:24:19;22.17;40.15
74968;SHT30;63523;51.880;12.630;2023-09-19T12:26:46;22.10;41.57
74968;SHT30;63523;51.880;12.630;2023-09-19T12:29:19;22.21;41.10
74968;SHT30;63523;51.880;12.630;2023-09-19T12:31:54;22.40;40.28
74968;SHT30;63523;51.880;12.630;2023-09-19T12:34:27;22.48;40.56
74968;SHT30;63523;51.880;12.630;2023-09-19T12:37:12;22.48;40.33
74968;SHT30;63523;51.880;12.630;2023-09-19T12:39:45;22.45;40.45
74968;SHT30;63523;51.880;12.630;2023-09-19T12:42:22;22.37;40.46
74968;SHT30;63523;51.880;12.630;2023-09-19T12:44:50;22.47;40.74
74968;SHT30;63523;51.880;12.630;2023-09-19T12:47:21;22.52;40.11
74968;SHT30;63523;51.880;12.630;2023-09-19T12:52:37;22.70;40.12
74968;SHT30;63523;51.880;12.630;2023-09-19T12:55:04;22.59;40.35
74968;SHT30;63523;51.880;12.630;2023-09-19T12:57:32;22.52;41.16
74968;SHT30;63523;51.880;12.630;2023-09-19T13:00:03;22.47;41.31
74968;SHT30;63523;51.880;12.630;2023-09-19T13:02:31;22.34;40.95
74968;SHT30;63523;51.880;12.630;2023-09-19T13:04:56;22.30;41.43
74968;SHT30;63523;51.880;12.630;2023-09-19T13:07:44;22.31;41.54
74968;SHT30;63523;51.880;12.630;2023-09-19T13:10:11;22.32;42.63
74968;SHT30;63523;51.880;12.630;2023-09-19T13:12:40;22.30;40.93
74968;SHT30;63523;51.880;12.630;2023-09-19T13:15:11;22.38;41.90
74968;SHT30;63523;51.880;12.630;2023-09-19T13:17:48;22.51;42.66
74968;SHT30;63523;51.880;12.630;2023-09-19T13:20:21;22.59;41.65
74968;SHT30;63523;51.880;12.630;2023-09-19T13:22:52;22.66;41.20
74968;SHT30;63523;51.880;12.630;2023-09-19T13:25:25;22.66;40.89
74968;SHT30;63523;51.880;12.630;2023-09-19T13:27:54;22.65;40.71
74968;SHT30;63523;51.880;12.630;2023-09-19T13:30:26;22.52;41.26
74968;SHT30;63523;51.880;12.630;2023-09-19T13:32:52;22.38;41.22
74968;SHT30;63523;51.880;12.630;2023-09-19T13:35:19;22.45;41.24
74968;SHT30;63523;51.880;12.630;2023-09-19T13:37:46;22.37;42.11
74968;SHT30;63523;51.880;12.630;2023-09-19T13:40:14;22.68;40.03
74968;SHT30;63523;51.880;12.630;2023-09-19T13:42:40;22.72;39.14
74968;SHT30;63523;51.880;12.630;2023-09-19T13:45:06;22.77;38.71
74968;SHT30;63523;51.880;12.630;2023-09-19T13:47:33;22.65;39.62
74968;SHT30;63523;51.880;12.630;2023-09-19T13:49:59;22.55;38.92
74968;SHT30;63523;51.880;12.630;2023-09-19T13:52:25;22.53;40.16
74968;SHT30;63523;51.880;12.630;2023-09-19T13:54:53;22.45;39.95
74968;SHT30;63523;51.880;12.630;2023-09-19T13:57:19;22.41;40.43
74968;SHT30;63523;51.880;12.630;2023-09-19T13:59:44;22.35;40.19
74968;SHT30;63523;51.880;12.630;2023-09-19T14:02:09;22.31;41.41
74968;SHT30;63523;51.880;12.630;2023-09-19T14:04:35;22.32;40.76
74968;SHT30;63523;51.880;12.630;2023-09-19T14:07:01;22.40;39.90
74968;SHT30;63523;51.880;12.630;2023-09-19T14:09:26;22.38;40.77
74968;SHT30;63523;51.880;12.630;2023-09-19T14:11:52;22.34;41.04
74968;SHT30;63523;51.880;12.630;2023-09-19T14:14:18;22.30;40.70
74968;SHT30;63523;51.880;12.630;2023-09-19T14:16:45;22.27;41.10
74968;SHT30;63523;51.880;12.630;2023-09-19T14:19:11;22.25;41.37
74968;SHT30;63523;51.880;12.630;2023-09-19T14:21:37;22.24;39.97
74968;SHT30;63523;51.880;12.630;2023-09-19T14:24:04;22.22;40.62
74968;SHT30;63523;51.880;12.630;2023-09-19T14:26:31;22.34;39.72
74968;SHT30;63523;51.880;12.630;2023-09-19T14:28:56;22.45;39.91
74968;SHT30;63523;51.880;12.630;2023-09-19T14:31:22;22.32;39.31
74968;SHT30;63523;51.880;12.630;2023-09-19T14:33:53;22.37;40.20
74968;SHT30;63523;51.880;12.630;2023-09-19T14:36:18;22.47;39.10
74968;SHT30;63523;51.880;12.630;2023-09-19T14:38:44;22.47;39.03
74968;SHT30;63523;51.880;12.630;2023-09-19T14:41:09;22.58;39.29
74968;SHT30;63523;51.880;12.630;2023-09-19T14:43:35;22.63;39.81
74968;SHT30;63523;51.880;12.630;2023-09-19T14:46:07;22.73;38.86
74968;SHT30;63523;51.880;12.630;2023-09-19T14:48:33;22.75;37.76
74968;SHT30;63523;51.880;12.630;2023-09-19T14:51:02;22.80;37.24
74968;SHT30;63523;51.880;12.630;2023-09-19T14:53:28;22.79;37.86
74968;SHT30;63523;51.880;12.630;2023-09-19T14:55:53;22.79;38.20
74968;SHT30;63523;51.880;12.630;2023-09-19T14:58:20;22.73;38.11
74968;SHT30;63523;51.880;12.630;2023-09-19T15:00:46;22.68;38.81
74968;SHT30;63523;51.880;12.630;2023-09-19T15:03:11;22.56;39.21
74968;SHT30;63523;51.880;12.630;2023-09-19T15:05:38;22.47;39.05
74968;SHT30;63523;51.880;12.630;2023-09-19T15:08:04;22.47;39.23
74968;SHT30;63523;51.880;12.630;2023-09-19T15:10:31;22.47;38.87
74968;SHT30;63523;51.880;12.630;2023-09-19T15:12:56;22.45;39.52
74968;SHT30;63523;51.880;12.630;2023-09-19T15:15:22;22.45;39.75
74968;SHT30;63523;51.880;12.630;2023-09-19T15:17:47;22.45;39.97
74968;SHT30;63523;51.880;12.630;2023-09-19T15:20:12;22.41;40.96
74968;SHT30;63523;51.880;12.630;2023-09-19T15:22:39;22.44;40.51
74968;SHT30;63523;51.880;12.630;2023-09-19T15:25:04;22.52;40.27
74968;SHT30;63523;51.880;12.630;2023-09-19T15:27:30;22.62;39.91
74968;SHT30;63523;51.880;12.630;2023-09-19T15:29:58;22.58;40.11
74968;SHT30;63523;51.880;12.630;2023-09-19T15:32:24;22.58;40.15
74968;SHT30;63523;51.880;12.630;2023-09-19T15:34:50;22.70;39.26
74968;SHT30;63523;51.880;12.630;2023-09-19T15:37:15;22.69;39.46
74968;SHT30;63523;51.880;12.630;2023-09-19T15:39:41;22.56;39.46
74968;SHT30;63523;51.880;12.630;2023-09-19T15:42:07;22.44;39.77
74968;SHT30;63523;51.880;12.630;2023-09-19T15:44:32;22.35;39.65
74968;SHT30;63523;51.880;12.630;2023-09-19T15:46:58;22.24;39.81
74968;SHT30;63523;51.880;12.630;2023-09-19T15:49:23;22.13;40.18
74968;SHT30;63523;51.880;12.630;2023-09-19T15:51:49;22.03;40.84
74968;SHT30;63523;51.880;12.630;2023-09-19T15:54:15;21.98;41.37
74968;SHT30;63523;51.880;12.630;2023-09-19T15:56:41;21.98;41.00
74968;SHT30;63523;51.880;12.630;2023-09-19T15:59:07;22.06;40.67
74968;SHT30;63523;51.880;12.630;2023-09-19T16:01:34;21.98;40.92
74968;SHT30;63523;51.880;12.630;2023-09-19T16:03:59;22.00;41.09
74968;SHT30;63523;51.880;12.630;2023-09-19T16:06:29;21.90;41.46
74968;SHT30;63523;51.880;12.630;2023-09-19T16:08:56;21.89;40.52
74968;SHT30;63523;51.880;12.630;2023-09-19T16:11:23;21.90;40.25
74968;SHT30;63523;51.880;12.630;2023-09-19T16:13:50;21.89;40.45
74968;SHT30;63523;51.880;12.630;2023-09-19T16:16:17;21.75;41.63